Time;durP1;ratioP1;P1;durP2;ratioP2;P2;SDS_P1;SDS_P2;PMS_P1;PMS_P2;Temp;Humidity;BMP_temperature;BMP_pressure;BME280_temperature;BME280_humidity;BME280_pressure;Samples;Min_cycle;Max_cycle;Signal;HPM_P1;HPM_P2
2022/05/30 00:01:22;;;;;;;6.47;2.45;;;;;;;;;;5028836;28;20182;-71
2022/05/30 00:03:48;;;;;;;7.93;2.20;;;;;;;;;;5027329;28;20186;-71
2022/05/30 00:06:17;;;;;;;8.73;1.92;;;;;;;;;;5034521;28;20220;-71
2022/05/30 00:08:43;;;;;;;8.75;1.70;;;;;;;;;;5042987;28;20189;-71
2022/05/30 00:11:11;;;;;;;9.70;2.03;;;;;;;;;;5037806;28;20540;-71
2022/05/30 00:13:37;;;;;;;7.95;2.15;;;;;;;;;;5039684;28;20461;-71
2022/05/30 00:16:11;;;;;;;7.85;2.38;;;;;;;;;;5034412;28;20186;-71
2022/05/30 00:18:37;;;;;;;10.23;1.88;;;;;;;;;;5044745;28;20181;-71
2022/05/30 00:21:03;;;;;;;5.60;1.98;;;;;;;;;;5033878;28;20178;-71
2022/05/30 00:23:29;;;;;;;12.65;1.98;;;;;;;;;;5033640;28;20227;-71
2022/05/30 00:25:54;;;;;;;8.18;2.35;;;;;;;;;;5034375;28;20609;-71
2022/05/30 00:28:20;;;;;;;11.05;2.22;;;;;;;;;;5036262;28;20174;-71
2022/05/30 00:30:46;;;;;;;9.33;2.00;;;;;;;;;;5032335;28;20616;-71
2022/05/30 00:33:13;;;;;;;6.53;1.55;;;;;;;;;;5036628;28;20632;-71
2022/05/30 00:35:40;;;;;;;9.50;1.67;;;;;;;;;;5037779;28;20192;-71
2022/05/30 00:38:06;;;;;;;7.85;1.90;;;;;;;;;;5026629;28;20217;-71
2022/05/30 00:40:32;;;;;;;9.40;2.78;;;;;;;;;;5029284;28;20173;-71
2022/05/30 00:43:38;;;;;;;7.38;1.50;;;;;;;;;;5033693;28;20177;-71
2022/05/30 00:46:11;;;;;;;7.43;1.92;;;;;;;;;;5020544;28;20618;-71
2022/05/30 00:48:41;;;;;;;12.32;2.22;;;;;;;;;;5017180;28;20656;-71
2022/05/30 00:51:13;;;;;;;11.02;2.33;;;;;;;;;;5034228;28;20230;-71
2022/05/30 00:53:40;;;;;;;5.90;1.83;;;;;;;;;;5027786;28;20202;-71
2022/05/30 00:56:09;;;;;;;7.53;2.13;;;;;;;;;;5034081;28;20657;-71
2022/05/30 00:58:38;;;;;;;6.03;2.05;;;;;;;;;;5038482;28;20235;-71
2022/05/30 01:01:05;;;;;;;11.02;1.85;;;;;;;;;;5047598;28;20211;-71
2022/05/30 01:06:32;;;;;;;8.50;1.63;;;;;;;;;;5032823;28;20184;-71
2022/05/30 01:09:16;;;;;;;11.45;2.25;;;;;;;;;;5038466;28;20180;-70
2022/05/30 01:11:57;;;;;;;8.93;2.20;;;;;;;;;;5047798;28;20225;-71
2022/05/30 01:14:27;;;;;;;6.57;1.65;;;;;;;;;;5039002;28;20211;-71
2022/05/30 01:16:54;;;;;;;10.35;1.75;;;;;;;;;;5030608;28;20178;-71
2022/05/30 01:19:40;;;;;;;5.68;1.58;;;;;;;;;;5045165;28;20204;-70
2022/05/30 01:22:31;;;;;;;8.98;1.70;;;;;;;;;;5034898;28;20188;-70
2022/05/30 01:25:02;;;;;;;7.30;1.55;;;;;;;;;;5034479;28;20178;-71
2022/05/30 01:28:05;;;;;;;8.23;1.60;;;;;;;;;;5039547;28;20517;-70
2022/05/30 01:30:34;;;;;;;6.85;1.40;;;;;;;;;;5033160;28;20177;-71
2022/05/30 01:32:59;;;;;;;8.30;1.80;;;;;;;;;;5039072;28;20197;-71
2022/05/30 01:35:26;;;;;;;10.77;1.95;;;;;;;;;;5036839;28;20517;-71
2022/05/30 01:37:51;;;;;;;8.13;1.80;;;;;;;;;;5031335;28;20174;-71
2022/05/30 01:40:18;;;;;;;10.80;1.58;;;;;;;;;;5033470;28;20185;-71
2022/05/30 01:42:44;;;;;;;9.43;1.85;;;;;;;;;;5043444;28;20239;-71
2022/05/30 01:45:09;;;;;;;6.15;1.67;;;;;;;;;;5034635;28;20634;-71
2022/05/30 01:47:35;;;;;;;7.40;1.83;;;;;;;;;;5046310;28;20192;-71
2022/05/30 01:50:01;;;;;;;5.57;1.98;;;;;;;;;;5043002;28;20656;-71
2022/05/30 01:52:28;;;;;;;11.48;2.20;;;;;;;;;;5039482;28;20173;-71
2022/05/30 01:54:54;;;;;;;5.20;1.85;;;;;;;;;;5035380;28;20201;-71
2022/05/30 01:57:19;;;;;;;8.18;2.13;;;;;;;;;;5048390;28;20507;-71
2022/05/30 01:59:44;;;;;;;8.07;2.30;;;;;;;;;;5045729;28;20657;-71
2022/05/30 02:02:10;;;;;;;6.85;2.05;;;;;;;;;;5039226;28;20192;-71
2022/05/30 02:04:35;;;;;;;10.13;2.63;;;;;;;;;;5041845;28;20185;-71
2022/05/30 02:07:01;;;;;;;5.95;2.40;;;;;;;;;;5039769;28;20620;-71
2022/05/30 02:09:26;;;;;;;11.68;2.30;;;;;;;;;;5041747;28;20647;-71
2022/05/30 02:11:52;;;;;;;12.45;3.10;;;;;;;;;;5037601;28;20671;-71
2022/05/30 02:14:17;;;;;;;9.43;2.85;;;;;;;;;;5041272;28;20592;-71
2022/05/30 02:17:00;;;;;;;7.27;2.37;;;;;;;;;;5044074;28;20197;-71
2022/05/30 02:19:31;;;;;;;9.02;2.20;;;;;;;;;;5040582;28;20260;-71
2022/05/30 02:21:57;;;;;;;9.77;2.60;;;;;;;;;;5033284;28;20232;-72
2022/05/30 02:24:23;;;;;;;9.00;2.67;;;;;;;;;;5040073;28;20202;-71
2022/05/30 02:26:48;;;;;;;13.05;2.63;;;;;;;;;;5031647;28;20265;-71
2022/05/30 02:29:13;;;;;;;11.23;2.63;;;;;;;;;;5033900;28;20186;-71
2022/05/30 02:31:39;;;;;;;8.07;2.05;;;;;;;;;;5035509;28;20204;-71
2022/05/30 02:36:50;;;;;;;7.63;2.58;;;;;;;;;;5038181;28;20616;-71
2022/05/30 02:39:26;;;;;;;5.70;2.38;;;;;;;;;;5033525;28;20649;-71
2022/05/30 02:41:52;;;;;;;7.97;2.40;;;;;;;;;;5048328;28;20196;-71
2022/05/30 02:44:19;;;;;;;7.28;2.50;;;;;;;;;;5037389;28;20681;-71
2022/05/30 02:46:46;;;;;;;12.55;3.00;;;;;;;;;;5030513;28;20261;-71
2022/05/30 02:49:12;;;;;;;10.50;2.65;;;;;;;;;;5042107;28;20178;-71
2022/05/30 02:51:37;;;;;;;7.43;2.15;;;;;;;;;;5034594;28;20190;-71
2022/05/30 02:54:03;;;;;;;10.48;2.38;;;;;;;;;;5030869;28;20651;-71
2022/05/30 02:56:28;;;;;;;5.90;2.45;;;;;;;;;;5034194;28;20193;-71
2022/05/30 02:58:57;;;;;;;7.60;2.22;;;;;;;;;;5029835;28;20602;-71
2022/05/30 03:01:23;;;;;;;7.20;2.25;;;;;;;;;;5031459;28;20494;-71
2022/05/30 03:03:48;;;;;;;7.28;2.20;;;;;;;;;;5037084;28;20190;-71
2022/05/30 03:06:13;;;;;;;6.95;2.70;;;;;;;;;;5038637;28;20273;-71
2022/05/30 03:08:39;;;;;;;12.52;3.03;;;;;;;;;;5036901;28;20225;-71
2022/05/30 03:11:04;;;;;;;7.70;2.45;;;;;;;;;;5028138;28;20554;-71
2022/05/30 03:13:30;;;;;;;5.47;2.17;;;;;;;;;;5036234;28;20226;-71
2022/05/30 03:15:55;;;;;;;6.60;2.10;;;;;;;;;;5030477;28;20236;-71
2022/05/30 03:18:20;;;;;;;9.75;2.30;;;;;;;;;;5039470;28;20269;-72
2022/05/30 03:20:46;;;;;;;9.50;2.67;;;;;;;;;;5034639;28;20181;-71
2022/05/30 03:23:11;;;;;;;12.07;2.65;;;;;;;;;;5030487;28;20194;-70
2022/05/30 03:25:36;;;;;;;6.43;2.03;;;;;;;;;;5029937;28;21310;-71
2022/05/30 03:28:02;;;;;;;9.68;2.88;;;;;;;;;;5039258;28;20189;-70
2022/05/30 03:30:28;;;;;;;8.70;2.50;;;;;;;;;;5038822;28;20176;-70
2022/05/30 03:32:54;;;;;;;7.40;2.30;;;;;;;;;;5036509;28;20190;-70
2022/05/30 03:35:20;;;;;;;10.20;2.65;;;;;;;;;;5033698;28;20272;-71
2022/05/30 03:37:46;;;;;;;14.97;3.30;;;;;;;;;;5040242;28;20688;-71
2022/05/30 03:40:14;;;;;;;8.20;2.45;;;;;;;;;;5043314;28;20213;-70
2022/05/30 03:42:39;;;;;;;6.80;2.40;;;;;;;;;;5029029;28;20638;-69
2022/05/30 03:45:06;;;;;;;13.13;3.03;;;;;;;;;;5034409;28;20269;-70
2022/05/30 03:47:40;;;;;;;11.32;2.90;;;;;;;;;;5038221;28;20251;-70
2022/05/30 03:50:07;;;;;;;8.85;2.85;;;;;;;;;;5033781;28;20546;-70
2022/05/30 03:52:32;;;;;;;7.82;2.55;;;;;;;;;;5039538;28;20197;-70
2022/05/30 03:54:58;;;;;;;9.05;3.00;;;;;;;;;;5040311;28;20197;-70
2022/05/30 03:57:23;;;;;;;12.80;3.20;;;;;;;;;;5034315;28;20323;-71
2022/05/30 03:59:49;;;;;;;13.37;3.10;;;;;;;;;;5036840;28;20178;-71
2022/05/30 04:02:14;;;;;;;7.90;2.70;;;;;;;;;;5046513;28;20182;-70
2022/05/30 04:04:39;;;;;;;10.82;3.08;;;;;;;;;;5033166;28;20177;-71
2022/05/30 04:07:05;;;;;;;6.72;2.20;;;;;;;;;;5035591;28;20638;-71
2022/05/30 04:09:31;;;;;;;14.50;2.67;;;;;;;;;;5036554;28;20319;-71
2022/05/30 04:11:56;;;;;;;9.03;2.40;;;;;;;;;;5037165;28;20580;-70
2022/05/30 04:14:21;;;;;;;7.37;2.77;;;;;;;;;;5033786;28;20200;-71
2022/05/30 04:16:47;;;;;;;14.50;2.87;;;;;;;;;;5036839;28;20181;-71
2022/05/30 04:19:12;;;;;;;7.33;3.00;;;;;;;;;;5044933;28;20186;-70
2022/05/30 04:21:38;;;;;;;9.55;3.15;;;;;;;;;;5041678;28;20848;-70
2022/05/30 04:24:04;;;;;;;5.05;2.20;;;;;;;;;;5034586;28;20224;-70
2022/05/30 04:26:29;;;;;;;8.77;3.00;;;;;;;;;;5037901;28;21443;-71
2022/05/30 04:28:55;;;;;;;8.82;2.92;;;;;;;;;;5031042;28;20232;-70
2022/05/30 04:31:20;;;;;;;9.45;3.38;;;;;;;;;;5040588;28;20200;-72
2022/05/30 04:33:45;;;;;;;9.15;2.92;;;;;;;;;;5040882;28;20279;-70
2022/05/30 04:36:13;;;;;;;9.90;2.92;;;;;;;;;;5038050;28;20672;-70
2022/05/30 04:38:38;;;;;;;11.43;2.90;;;;;;;;;;5032275;28;20276;-70
2022/05/30 04:41:04;;;;;;;12.70;3.10;;;;;;;;;;5032952;28;20261;-71
2022/05/30 04:43:30;;;;;;;6.28;2.13;;;;;;;;;;5040212;28;20217;-71
2022/05/30 04:46:14;;;;;;;10.95;2.55;;;;;;;;;;5037514;28;20257;-71
2022/05/30 04:48:40;;;;;;;7.75;2.58;;;;;;;;;;5040728;28;20188;-71
2022/05/30 04:51:06;;;;;;;12.25;2.60;;;;;;;;;;5029598;28;20886;-71
2022/05/30 04:53:32;;;;;;;8.20;2.15;;;;;;;;;;5029672;28;20201;-71
2022/05/30 04:55:58;;;;;;;9.55;2.80;;;;;;;;;;5028737;28;20185;-71
2022/05/30 04:58:24;;;;;;;6.90;2.17;;;;;;;;;;5031001;28;20178;-71
2022/05/30 05:00:55;;;;;;;5.35;2.20;;;;;;;;;;5037740;28;20231;-71
2022/05/30 05:03:20;;;;;;;10.95;2.53;;;;;;;;;;5033486;28;20189;-71
2022/05/30 05:05:45;;;;;;;8.60;2.25;;;;;;;;;;5037876;28;20178;-71
2022/05/30 05:08:32;;;;;;;11.82;2.55;;;;;;;;;;5033903;28;20554;-71
2022/05/30 05:11:13;;;;;;;4.93;2.10;;;;;;;;;;5029051;28;20223;-71
2022/05/30 05:13:39;;;;;;;12.60;2.60;;;;;;;;;;5027990;28;20220;-71
2022/05/30 05:16:05;;;;;;;7.93;2.00;;;;;;;;;;5037287;28;20185;-71
2022/05/30 05:18:30;;;;;;;6.05;2.10;;;;;;;;;;5032432;28;20196;-71
2022/05/30 05:20:55;;;;;;;4.50;1.67;;;;;;;;;;5028843;28;20201;-72
2022/05/30 05:23:21;;;;;;;7.25;2.15;;;;;;;;;;5033780;28;20285;-70
2022/05/30 05:25:46;;;;;;;4.05;1.42;;;;;;;;;;5028407;28;20174;-71
2022/05/30 05:28:12;;;;;;;7.43;2.28;;;;;;;;;;5028986;28;20289;-71
2022/05/30 05:30:40;;;;;;;6.07;1.90;;;;;;;;;;5030396;28;20608;-70
2022/05/30 05:33:05;;;;;;;11.23;2.20;;;;;;;;;;5030746;28;20232;-71
2022/05/30 05:35:30;;;;;;;6.57;2.15;;;;;;;;;;5030097;28;20199;-71
2022/05/30 05:37:56;;;;;;;9.05;2.20;;;;;;;;;;5032535;28;20182;-71
2022/05/30 05:40:22;;;;;;;7.72;1.75;;;;;;;;;;5030900;28;20182;-71
2022/05/30 05:42:47;;;;;;;4.00;1.65;;;;;;;;;;5031255;28;20630;-71
2022/05/30 05:45:12;;;;;;;11.00;1.92;;;;;;;;;;5033858;28;21713;-71
2022/05/30 05:47:38;;;;;;;6.43;1.88;;;;;;;;;;5035364;28;20186;-72
2022/05/30 05:50:04;;;;;;;6.30;2.05;;;;;;;;;;5036808;28;20180;-71
2022/05/30 05:52:30;;;;;;;8.60;2.08;;;;;;;;;;5035110;28;20186;-71
2022/05/30 05:54:56;;;;;;;10.35;1.85;;;;;;;;;;5034512;28;20244;-71
2022/05/30 05:57:22;;;;;;;8.68;1.95;;;;;;;;;;5031808;28;20186;-72
2022/05/30 05:59:48;;;;;;;6.90;1.55;;;;;;;;;;5038359;28;20194;-72
2022/05/30 06:02:13;;;;;;;7.80;2.17;;;;;;;;;;5036415;28;20178;-71
2022/05/30 06:04:39;;;;;;;6.13;1.60;;;;;;;;;;5033168;28;20217;-71
2022/05/30 06:07:05;;;;;;;8.15;1.48;;;;;;;;;;5027915;28;20669;-72
2022/05/30 06:09:30;;;;;;;8.18;1.58;;;;;;;;;;5041077;28;20182;-72
2022/05/30 06:11:57;;;;;;;6.38;1.60;;;;;;;;;;5031256;28;20221;-71
2022/05/30 06:14:23;;;;;;;5.65;1.63;;;;;;;;;;5034844;28;20189;-72
2022/05/30 06:16:49;;;;;;;7.50;1.60;;;;;;;;;;5037591;28;20186;-72
2022/05/30 06:19:15;;;;;;;5.68;1.50;;;;;;;;;;5033436;28;20178;-72
2022/05/30 06:21:40;;;;;;;4.15;1.17;;;;;;;;;;5038112;28;20551;-71
2022/05/30 06:24:07;;;;;;;4.63;1.08;;;;;;;;;;5033896;28;20175;-71
2022/05/30 06:26:32;;;;;;;4.65;1.40;;;;;;;;;;5037156;28;20650;-71
2022/05/30 06:28:58;;;;;;;2.38;1.10;;;;;;;;;;5039041;28;20178;-71
2022/05/30 06:31:26;;;;;;;5.15;1.08;;;;;;;;;;5032130;28;20313;-71
2022/05/30 06:33:53;;;;;;;4.95;1.15;;;;;;;;;;5033602;28;20209;-71
2022/05/30 06:36:21;;;;;;;6.60;1.25;;;;;;;;;;5032043;28;20185;-71
2022/05/30 06:38:47;;;;;;;5.00;1.38;;;;;;;;;;5028484;28;20177;-71
2022/05/30 06:41:17;;;;;;;4.65;0.90;;;;;;;;;;5031973;28;20200;-71
2022/05/30 06:43:44;;;;;;;3.10;0.90;;;;;;;;;;5031134;28;20261;-71
2022/05/30 06:46:10;;;;;;;2.65;0.80;;;;;;;;;;5027739;28;20189;-71
2022/05/30 06:48:35;;;;;;;4.65;1.13;;;;;;;;;;5025172;28;20565;-71
2022/05/30 06:51:03;;;;;;;4.93;0.80;;;;;;;;;;5030006;28;20240;-70
2022/05/30 06:53:28;;;;;;;5.72;0.90;;;;;;;;;;5040282;28;20192;-71
2022/05/30 06:55:54;;;;;;;2.10;0.90;;;;;;;;;;5045707;28;20178;-70
2022/05/30 06:58:20;;;;;;;4.05;1.00;;;;;;;;;;5036206;28;20178;-71
2022/05/30 07:00:47;;;;;;;4.72;1.05;;;;;;;;;;5047366;28;20177;-71
2022/05/30 07:03:14;;;;;;;6.65;0.90;;;;;;;;;;5035556;28;20285;-71
2022/05/30 07:05:42;;;;;;;3.00;0.93;;;;;;;;;;5041402;28;20254;-70
2022/05/30 07:08:07;;;;;;;2.35;0.60;;;;;;;;;;5042646;28;20201;-71
2022/05/30 07:10:35;;;;;;;1.88;0.57;;;;;;;;;;5042796;28;20687;-71
2022/05/30 07:13:01;;;;;;;2.05;0.55;;;;;;;;;;5041240;28;20519;-69
2022/05/30 07:15:27;;;;;;;5.72;0.60;;;;;;;;;;5028021;28;20252;-71
2022/05/30 07:17:53;;;;;;;2.60;0.50;;;;;;;;;;5037316;28;20177;-70
2022/05/30 07:20:18;;;;;;;7.10;0.80;;;;;;;;;;5048892;28;20181;-71
2022/05/30 07:22:44;;;;;;;2.47;0.60;;;;;;;;;;5041913;28;20650;-70
2022/05/30 07:25:10;;;;;;;3.38;0.55;;;;;;;;;;5042583;28;20616;-71
2022/05/30 07:27:35;;;;;;;0.75;0.30;;;;;;;;;;5042169;28;20181;-70
2022/05/30 07:30:00;;;;;;;2.97;0.47;;;;;;;;;;5042749;28;20232;-70
2022/05/30 07:32:26;;;;;;;2.72;0.50;;;;;;;;;;5038620;28;20205;-72
2022/05/30 07:34:51;;;;;;;3.20;0.50;;;;;;;;;;5032874;28;20210;-72
2022/05/30 07:37:17;;;;;;;1.67;0.45;;;;;;;;;;5036909;28;20210;-71
2022/05/30 07:39:42;;;;;;;1.52;0.38;;;;;;;;;;5033190;28;20198;-71
2022/05/30 07:42:10;;;;;;;3.03;0.40;;;;;;;;;;5028099;28;20232;-71
2022/05/30 07:44:35;;;;;;;3.42;0.50;;;;;;;;;;5026164;28;20590;-69
2022/05/30 07:47:01;;;;;;;1.50;0.40;;;;;;;;;;5031734;28;20272;-68
2022/05/30 07:49:27;;;;;;;3.80;0.47;;;;;;;;;;5038112;28;20181;-71
2022/05/30 07:51:53;;;;;;;1.70;0.30;;;;;;;;;;5035251;28;20182;-70
2022/05/30 07:54:18;;;;;;;1.58;0.57;;;;;;;;;;5029806;28;20201;-69
2022/05/30 07:56:45;;;;;;;3.72;0.73;;;;;;;;;;5032722;28;20560;-70
2022/05/30 07:59:10;;;;;;;2.45;0.50;;;;;;;;;;5034137;28;20261;-70
2022/05/30 08:01:36;;;;;;;3.90;0.60;;;;;;;;;;5031706;28;20462;-69
2022/05/30 08:04:01;;;;;;;4.88;0.40;;;;;;;;;;5027987;28;20175;-71
2022/05/30 08:06:30;;;;;;;1.38;0.40;;;;;;;;;;5034912;28;20187;-71
2022/05/30 08:08:56;;;;;;;2.88;0.40;;;;;;;;;;5028363;28;20185;-70
2022/05/30 08:11:23;;;;;;;3.05;0.30;;;;;;;;;;5032714;28;20170;-71
2022/05/30 08:13:49;;;;;;;3.78;0.60;;;;;;;;;;5035016;28;20244;-69
2022/05/30 08:16:22;;;;;;;1.13;0.40;;;;;;;;;;5031856;28;20198;-69
2022/05/30 08:18:48;;;;;;;3.47;0.50;;;;;;;;;;5031401;28;20235;-70
2022/05/30 08:21:15;;;;;;;3.30;0.40;;;;;;;;;;5031095;28;20210;-71
2022/05/30 08:23:40;;;;;;;1.52;0.65;;;;;;;;;;5032599;28;20189;-71
2022/05/30 08:26:06;;;;;;;2.03;0.65;;;;;;;;;;5034501;28;20373;-71
2022/05/30 08:28:33;;;;;;;1.15;0.60;;;;;;;;;;5031988;28;20182;-71
2022/05/30 08:30:58;;;;;;;2.05;0.52;;;;;;;;;;5036499;28;20216;-70
2022/05/30 08:33:24;;;;;;;1.10;0.40;;;;;;;;;;5037147;28;20178;-71
2022/05/30 08:36:08;;;;;;;2.63;0.40;;;;;;;;;;5041979;28;20712;-69
2022/05/30 08:38:37;;;;;;;1.95;0.35;;;;;;;;;;5028649;28;20182;-70
2022/05/30 08:43:55;;;;;;;1.45;0.50;;;;;;;;;;5041069;28;20192;-71
2022/05/30 08:46:45;;;;;;;3.85;0.40;;;;;;;;;;5030819;28;20186;-71
2022/05/30 08:49:22;;;;;;;1.55;0.47;;;;;;;;;;5035375;28;20192;-71
2022/05/30 08:52:05;;;;;;;0.70;0.20;;;;;;;;;;5032036;28;20196;-71
2022/05/30 08:54:54;;;;;;;1.23;0.50;;;;;;;;;;5034852;28;20197;-70
2022/05/30 08:57:29;;;;;;;2.70;0.35;;;;;;;;;;5025456;28;20198;-69
2022/05/30 09:00:06;;;;;;;1.83;0.38;;;;;;;;;;5027436;28;20488;-70
2022/05/30 09:02:47;;;;;;;2.47;0.40;;;;;;;;;;5028712;28;20589;-70
2022/05/30 09:05:20;;;;;;;4.45;0.50;;;;;;;;;;5030997;28;20177;-69
2022/05/30 09:07:52;;;;;;;1.58;0.35;;;;;;;;;;5025887;28;20193;-70
2022/05/30 09:10:28;;;;;;;2.08;0.50;;;;;;;;;;5030670;28;20182;-67
2022/05/30 09:13:00;;;;;;;6.85;0.70;;;;;;;;;;5028173;28;20310;-66
2022/05/30 09:15:35;;;;;;;1.02;0.30;;;;;;;;;;5019235;28;20186;-67
2022/05/30 09:18:00;;;;;;;2.60;0.65;;;;;;;;;;5027565;28;20227;-70
2022/05/30 09:20:27;;;;;;;2.40;0.63;;;;;;;;;;5034590;28;20185;-70
2022/05/30 09:22:53;;;;;;;2.50;0.60;;;;;;;;;;5035935;28;20661;-68
2022/05/30 09:28:08;;;;;;;2.42;0.55;;;;;;;;;;5034511;28;20276;-70
2022/05/30 09:30:48;;;;;;;2.75;0.60;;;;;;;;;;5031637;28;20186;-70
2022/05/30 09:33:31;;;;;;;1.85;0.60;;;;;;;;;;5034250;28;20170;-68
2022/05/30 09:36:10;;;;;;;2.28;0.50;;;;;;;;;;5035530;28;20177;-69
2022/05/30 09:38:41;;;;;;;2.55;0.30;;;;;;;;;;5037843;28;20186;-69
2022/05/30 09:41:21;;;;;;;1.80;0.45;;;;;;;;;;5037023;28;20200;-69
2022/05/30 09:43:58;;;;;;;1.50;0.50;;;;;;;;;;5044076;28;21720;-66
2022/05/30 09:46:49;;;;;;;2.00;0.22;;;;;;;;;;5038842;28;20695;-69
2022/05/30 09:49:22;;;;;;;1.95;0.47;;;;;;;;;;5034795;28;20181;-68
2022/05/30 09:51:55;;;;;;;4.30;0.40;;;;;;;;;;5039176;28;20669;-69
2022/05/30 09:54:38;;;;;;;2.28;0.40;;;;;;;;;;5035005;28;20208;-69
2022/05/30 09:57:16;;;;;;;1.98;0.40;;;;;;;;;;5046819;28;20235;-68
2022/05/30 09:59:47;;;;;;;1.80;0.45;;;;;;;;;;5034249;28;20197;-69
2022/05/30 10:02:34;;;;;;;1.80;0.45;;;;;;;;;;5030490;28;20188;-65
2022/05/30 10:05:07;;;;;;;4.40;0.85;;;;;;;;;;5043464;28;20193;-68
2022/05/30 10:07:35;;;;;;;1.17;0.30;;;;;;;;;;5035678;28;20260;-69
2022/05/30 10:10:03;;;;;;;4.13;0.50;;;;;;;;;;5042046;28;20182;-69
2022/05/30 10:12:44;;;;;;;1.08;0.30;;;;;;;;;;5036846;28;20750;-67
2022/05/30 10:15:32;;;;;;;4.13;0.50;;;;;;;;;;5037947;28;20217;-68
2022/05/30 10:18:23;;;;;;;1.58;0.50;;;;;;;;;;5037497;28;20543;-66
2022/05/30 10:21:22;;;;;;;0.65;0.30;;;;;;;;;;5044169;28;20185;-67
2022/05/30 10:30:25;;;;;;;2.00;0.40;;;;;;;;;;5033810;28;20219;-68
2022/05/30 10:33:06;;;;;;;1.45;0.40;;;;;;;;;;5034632;28;20213;-68
2022/05/30 10:36:03;;;;;;;4.22;0.50;;;;;;;;;;5033428;28;20696;-71
2022/05/30 10:38:28;;;;;;;3.40;0.35;;;;;;;;;;5037055;28;20185;-70
2022/05/30 10:41:09;;;;;;;1.75;0.30;;;;;;;;;;5033329;28;20475;-68
2022/05/30 10:44:07;;;;;;;0.17;0.17;;;;;;;;;;5035692;28;20231;-66
2022/05/30 10:46:53;;;;;;;0.77;0.30;;;;;;;;;;5032742;28;20683;-68
2022/05/30 10:49:21;;;;;;;1.00;0.20;;;;;;;;;;5032692;28;20546;-69
2022/05/30 10:52:23;;;;;;;0.98;0.20;;;;;;;;;;5029763;28;20228;-69
2022/05/30 10:54:56;;;;;;;1.48;0.38;;;;;;;;;;5029302;28;20205;-70
2022/05/30 10:57:27;;;;;;;1.38;0.40;;;;;;;;;;5034499;28;20687;-69
2022/05/30 10:59:58;;;;;;;0.60;0.30;;;;;;;;;;5032540;28;20212;-67
2022/05/30 11:02:52;;;;;;;2.55;0.40;;;;;;;;;;5031990;28;20607;-64
2022/05/30 11:05:24;;;;;;;1.10;0.40;;;;;;;;;;5028625;28;20174;-69
2022/05/30 11:07:59;;;;;;;0.52;0.40;;;;;;;;;;5033696;28;20190;-71
2022/05/30 11:10:38;;;;;;;2.13;0.40;;;;;;;;;;5038770;28;20186;-69
2022/05/30 11:13:20;;;;;;;3.47;0.60;;;;;;;;;;5029910;28;20275;-70
2022/05/30 11:16:00;;;;;;;1.75;0.50;;;;;;;;;;5028767;28;20622;-68
2022/05/30 11:18:39;;;;;;;1.63;0.75;;;;;;;;;;5042989;28;20257;-65
2022/05/30 11:21:13;;;;;;;0.68;0.40;;;;;;;;;;5037568;28;20189;-68
2022/05/30 11:23:39;;;;;;;2.15;0.38;;;;;;;;;;5040667;28;20235;-68
2022/05/30 11:26:17;;;;;;;1.88;0.40;;;;;;;;;;5032536;28;20177;-65
2022/05/30 11:29:22;;;;;;;1.20;0.40;;;;;;;;;;5045766;28;20597;-68
2022/05/30 11:32:10;;;;;;;1.25;0.40;;;;;;;;;;5035145;28;20200;-69
2022/05/30 11:35:00;;;;;;;1.33;0.50;;;;;;;;;;5035504;28;20197;-69
2022/05/30 11:37:40;;;;;;;1.58;0.45;;;;;;;;;;5044269;28;20292;-68
2022/05/30 11:40:19;;;;;;;2.28;0.47;;;;;;;;;;5033353;28;20209;-69
2022/05/30 11:43:09;;;;;;;1.48;0.40;;;;;;;;;;5036671;28;20536;-69
2022/05/30 11:45:57;;;;;;;0.65;0.25;;;;;;;;;;5026988;28;20261;-68
2022/05/30 11:48:44;;;;;;;1.60;0.40;;;;;;;;;;5026786;28;20260;-68
2022/05/30 11:51:45;;;;;;;1.50;0.32;;;;;;;;;;5026879;28;20174;-69
2022/05/30 11:54:47;;;;;;;0.85;0.45;;;;;;;;;;5027151;28;20279;-69
2022/05/30 11:57:21;;;;;;;0.70;0.40;;;;;;;;;;5040671;28;20177;-70
2022/05/30 12:00:04;;;;;;;2.13;0.40;;;;;;;;;;5028971;28;20623;-69
2022/05/30 12:02:58;;;;;;;0.20;0.20;;;;;;;;;;5041580;28;20211;-70
2022/05/30 12:05:47;;;;;;;6.78;0.80;;;;;;;;;;5033778;28;20174;-68
2022/05/30 12:08:24;;;;;;;1.33;0.40;;;;;;;;;;5047401;28;20219;-67
2022/05/30 12:11:16;;;;;;;3.03;0.65;;;;;;;;;;5029202;28;20635;-69
2022/05/30 12:14:06;;;;;;;1.00;0.40;;;;;;;;;;5028912;28;20494;-68
2022/05/30 12:16:49;;;;;;;1.77;0.40;;;;;;;;;;5033750;28;20186;-69
2022/05/30 12:25:36;;;;;;;1.95;0.50;;;;;;;;;;5039548;28;20235;-68
2022/05/30 12:28:03;;;;;;;0.38;0.32;;;;;;;;;;5032125;28;20212;-65
2022/05/30 12:30:43;;;;;;;4.53;0.50;;;;;;;;;;5028944;28;20253;-69
2022/05/30 12:33:27;;;;;;;0.50;0.30;;;;;;;;;;5028745;28;20675;-70
2022/05/30 12:36:10;;;;;;;2.95;0.40;;;;;;;;;;5033881;28;20219;-69
2022/05/30 12:38:53;;;;;;;1.00;0.40;;;;;;;;;;5029307;28;20276;-69
2022/05/30 12:41:34;;;;;;;1.33;0.40;;;;;;;;;;5030029;28;20166;-69
2022/05/30 12:44:00;;;;;;;0.30;0.30;;;;;;;;;;5028121;28;20331;-69
2022/05/30 12:46:28;;;;;;;2.13;0.38;;;;;;;;;;5032542;28;20239;-69
2022/05/30 12:49:13;;;;;;;1.98;0.47;;;;;;;;;;5031920;28;20182;-69
2022/05/30 12:51:38;;;;;;;1.08;0.25;;;;;;;;;;5032051;28;20173;-69
2022/05/30 12:54:04;;;;;;;2.30;0.43;;;;;;;;;;5032033;28;20185;-69
2022/05/30 12:56:43;;;;;;;2.90;0.60;;;;;;;;;;5035846;28;20242;-69
2022/05/30 12:59:32;;;;;;;0.57;0.30;;;;;;;;;;5038671;28;20181;-70
2022/05/30 13:01:58;;;;;;;1.27;0.40;;;;;;;;;;5031694;28;20714;-70
2022/05/30 13:04:26;;;;;;;0.22;0.22;;;;;;;;;;5031543;28;20174;-69
2022/05/30 13:06:53;;;;;;;2.03;0.30;;;;;;;;;;5033879;28;20181;-69
2022/05/30 13:09:33;;;;;;;1.92;0.52;;;;;;;;;;5041367;28;20185;-69
2022/05/30 13:12:11;;;;;;;0.30;0.30;;;;;;;;;;5033276;28;20422;-70
2022/05/30 13:14:36;;;;;;;0.80;0.30;;;;;;;;;;5030297;28;20205;-69
2022/05/30 13:17:26;;;;;;;3.25;0.40;;;;;;;;;;5039103;28;20178;-69
2022/05/30 13:20:20;;;;;;;1.05;0.43;;;;;;;;;;5036942;28;20645;-70
2022/05/30 13:22:51;;;;;;;2.15;0.50;;;;;;;;;;5028748;28;20202;-69
2022/05/30 13:25:47;;;;;;;1.65;0.35;;;;;;;;;;5040036;28;20653;-69
2022/05/30 13:28:21;;;;;;;2.47;0.47;;;;;;;;;;5032314;28;20303;-69
2022/05/30 13:30:48;;;;;;;2.17;0.40;;;;;;;;;;5035722;28;20800;-68
2022/05/30 13:33:19;;;;;;;1.70;0.45;;;;;;;;;;5044155;28;20189;-68
2022/05/30 13:35:44;;;;;;;0.80;0.35;;;;;;;;;;5035904;28;20221;-70
2022/05/30 13:38:13;;;;;;;1.15;0.40;;;;;;;;;;5030505;28;20178;-70
2022/05/30 13:40:39;;;;;;;1.02;0.32;;;;;;;;;;5041005;28;20194;-66
2022/05/30 13:43:07;;;;;;;2.13;0.47;;;;;;;;;;5034060;28;20239;-70
2022/05/30 13:45:37;;;;;;;1.52;0.45;;;;;;;;;;5031064;28;20186;-69
2022/05/30 13:48:06;;;;;;;2.70;0.30;;;;;;;;;;5047779;28;20170;-71
2022/05/30 13:50:48;;;;;;;1.42;0.50;;;;;;;;;;5041029;28;20587;-70
2022/05/30 13:53:17;;;;;;;0.80;0.47;;;;;;;;;;5044563;28;20583;-69
2022/05/30 13:56:02;;;;;;;0.98;0.40;;;;;;;;;;5045656;28;20339;-70
2022/05/30 13:58:30;;;;;;;0.82;0.40;;;;;;;;;;5040319;28;20186;-69
2022/05/30 14:01:00;;;;;;;0.77;0.40;;;;;;;;;;5040725;28;20174;-67
2022/05/30 14:03:26;;;;;;;1.05;0.40;;;;;;;;;;5047319;28;20185;-69
2022/05/30 14:05:51;;;;;;;3.80;0.40;;;;;;;;;;5035673;28;20173;-68
2022/05/30 14:08:23;;;;;;;1.20;0.40;;;;;;;;;;5041584;28;20183;-68
2022/05/30 14:10:48;;;;;;;2.33;0.60;;;;;;;;;;5041391;28;20478;-69
2022/05/30 14:13:35;;;;;;;4.32;0.40;;;;;;;;;;5044046;28;20237;-66
2022/05/30 14:16:04;;;;;;;2.10;0.50;;;;;;;;;;5030803;28;20236;-67
2022/05/30 14:18:54;;;;;;;3.85;0.70;;;;;;;;;;5031414;28;20210;-71
2022/05/30 14:21:25;;;;;;;0.88;0.50;;;;;;;;;;5030892;28;20214;-69
2022/05/30 14:23:54;;;;;;;1.70;0.52;;;;;;;;;;5032512;28;20559;-68
2022/05/30 14:26:30;;;;;;;2.13;0.50;;;;;;;;;;5034258;28;20309;-65
2022/05/30 14:29:05;;;;;;;0.80;0.50;;;;;;;;;;5038199;28;20205;-66
2022/05/30 14:31:33;;;;;;;1.50;0.35;;;;;;;;;;5032235;28;20962;-68
2022/05/30 14:34:09;;;;;;;1.30;0.40;;;;;;;;;;5033098;28;20501;-69
2022/05/30 14:36:40;;;;;;;1.35;0.40;;;;;;;;;;5038391;28;20193;-65
2022/05/30 14:39:13;;;;;;;2.13;0.55;;;;;;;;;;5033066;28;20178;-67
2022/05/30 14:41:49;;;;;;;2.25;0.50;;;;;;;;;;5035819;28;20703;-66
2022/05/30 14:44:20;;;;;;;1.15;0.40;;;;;;;;;;5037757;28;20704;-70
2022/05/30 14:46:46;;;;;;;1.40;0.50;;;;;;;;;;5031068;28;20180;-71
2022/05/30 14:49:21;;;;;;;1.52;0.50;;;;;;;;;;5033877;28;20190;-69
2022/05/30 14:52:01;;;;;;;0.90;0.38;;;;;;;;;;5032407;28;20193;-69
2022/05/30 14:54:44;;;;;;;1.27;0.43;;;;;;;;;;5037019;28;20216;-70
2022/05/30 14:57:15;;;;;;;2.90;0.60;;;;;;;;;;5033698;28;20200;-69
2022/05/30 14:59:43;;;;;;;1.55;0.50;;;;;;;;;;5031379;28;20319;-70
2022/05/30 15:04:57;;;;;;;1.15;0.60;;;;;;;;;;5039351;28;20232;-68
2022/05/30 15:07:29;;;;;;;1.17;0.35;;;;;;;;;;5012687;28;20658;-69
2022/05/30 15:09:54;;;;;;;1.48;0.40;;;;;;;;;;5040575;28;20544;-68
2022/05/30 15:12:19;;;;;;;0.65;0.50;;;;;;;;;;5039933;28;20229;-69
2022/05/30 15:14:45;;;;;;;0.95;0.43;;;;;;;;;;5036894;28;20210;-69
2022/05/30 15:17:11;;;;;;;4.60;0.47;;;;;;;;;;5044089;28;20205;-69
2022/05/30 15:19:37;;;;;;;3.03;0.50;;;;;;;;;;5037205;28;20261;-71
2022/05/30 15:22:07;;;;;;;1.20;0.70;;;;;;;;;;5040749;28;20204;-69
2022/05/30 15:25:04;;;;;;;1.67;0.52;;;;;;;;;;5035773;28;20180;-70
2022/05/30 15:27:30;;;;;;;1.15;0.60;;;;;;;;;;5030256;28;20341;-69
2022/05/30 15:29:55;;;;;;;1.10;0.77;;;;;;;;;;5037373;28;20818;-70
2022/05/30 15:32:23;;;;;;;2.67;0.70;;;;;;;;;;5030418;28;20202;-70